Sds Green — ICOK — position and weather

sailwx.info

Track history (hours):
 
Tides and Currents Weather Stations Pressure Air Temp Water Temp Dewpoint Dewpoint Depression Visibility Wind Speed Wind Dir Waves Ship Positions

Sds Green

Last reported at 2015-Jan-29 19:33 UTC. Time now 2015-Jan-29 20:31 UTC.
Position N 43°24' E 004°55'.

Length 108 m; draft 5 m.

Type: Cargo ship. MMSI: 247292200.

Date/timePositionNaut miles runAvg speedWind from/ knotsBaromVisibWave heightAir tempDewpointWater temp
2015-Jan-29 19:33N 43°24' E 004°55'0 0.0
2015-Jan-29 18:33N 43°24' E 004°55'0 0.0
2015-Jan-29 17:33N 43°24' E 004°55'0 0.0
2015-Jan-29 16:33N 43°24' E 004°55'0 0.0
2015-Jan-29 15:33N 43°24' E 004°55'0 0.0
2015-Jan-29 14:33N 43°24' E 004°55'0 0.0
2015-Jan-29 13:33N 43°24' E 004°55'0 0.0
2015-Jan-29 12:33N 43°24' E 004°55'0 0.0
2015-Jan-29 11:33N 43°24' E 004°55'2 2.5
2015-Jan-29 10:33N 43°23' E 004°58'1010.5
2015-Jan-29 09:34N 43°13' E 005°02'3 2.6
2015-Jan-29 08:28N 43°11' E 004°59'2 2.4
2015-Jan-29 07:30N 43°09' E 005°00'8 7.7
2015-Jan-29 06:30N 43°04' E 004°52'1111.9
2015-Jan-29 05:33N 42°56' E 004°41'1211.9
2015-Jan-29 04:33N 42°47' E 004°30'1312.6
2015-Jan-29 03:33N 42°39' E 004°18'1212.3
2015-Jan-29 02:33N 42°30' E 004°06'1312.7
2015-Jan-29 01:33N 42°21' E 003°54'1313.1
2015-Jan-29 00:33N 42°11' E 003°43'1312.8
2015-Jan-28 23:33N 42°01' E 003°32'1313.2
2015-Jan-28 22:33N 41°52' E 003°18'1413.5
2015-Jan-28 21:33N 41°43' E 003°05'1313.2
2015-Jan-28 20:33N 41°35' E 002°51'1312.7
2015-Jan-28 19:33N 41°27' E 002°38'1312.4
2015-Jan-28 18:31N 41°18' E 002°25'1212.6
2015-Jan-28 17:33N 41°10' E 002°13'1211.6
2015-Jan-28 16:33N 41°02' E 002°02'1111.2
2015-Jan-28 15:33N 40°55' E 001°51'1211.2
2015-Jan-28 14:31N 40°47' E 001°40'1010.8
2015-Jan-28 13:33N 40°40' E 001°30'9910.8
2015-Jan-28 04:21N 39°39' W 000°13'1 0.1
2015-Jan-27 15:33N 39°38' W 000°13'6111.3
2015-Jan-27 10:13N 39°20' E 001°03'811.5
2015-Jan-27 09:32N 39°18' E 001°12'1111.5
2015-Jan-27 08:33N 39°15' E 001°26'1111.0
2015-Jan-27 07:33N 39°12' E 001°40'1010.1
2015-Jan-27 06:33N 39°10' E 001°53'1010.5
2015-Jan-27 05:33N 39°07' E 002°06'1110.6
2015-Jan-27 04:33N 39°04' E 002°19'1110.9
2015-Jan-27 03:33N 39°01' E 002°32'1111.2
2015-Jan-27 02:33N 38°58' E 002°46'1110.9
2015-Jan-27 01:33N 38°54' E 002°59'1010.5
2015-Jan-27 00:33N 38°47' E 003°10'1010.1
2015-Jan-26 23:32N 38°41' E 003°20'  
Track history (hours):
 
Tides and Currents Weather Stations Pressure Air Temp Water Temp Dewpoint Dewpoint Depression Visibility Wind Speed Wind Dir Waves Ship Positions

Sds Green

Last reported at 2015-Jan-29 19:33 UTC. Time now 2015-Jan-29 20:31 UTC.
Position N 43°24' E 004°55'.

Length 108 m; draft 5 m.

Type: Cargo ship. MMSI: 247292200.

Date/timePositionNaut miles runAvg speedWind from/ knotsBaromVisibWave heightAir tempDewpointWater temp
2015-Jan-29 19:33N 43°24' E 004°55'0 0.0
2015-Jan-29 18:33N 43°24' E 004°55'0 0.0
2015-Jan-29 17:33N 43°24' E 004°55'0 0.0
2015-Jan-29 16:33N 43°24' E 004°55'0 0.0
2015-Jan-29 15:33N 43°24' E 004°55'0 0.0
2015-Jan-29 14:33N 43°24' E 004°55'0 0.0
2015-Jan-29 13:33N 43°24' E 004°55'0 0.0
2015-Jan-29 12:33N 43°24' E 004°55'0 0.0
2015-Jan-29 11:33N 43°24' E 004°55'2 2.5
2015-Jan-29 10:33N 43°23' E 004°58'1010.5
2015-Jan-29 09:34N 43°13' E 005°02'3 2.6
2015-Jan-29 08:28N 43°11' E 004°59'2 2.4
2015-Jan-29 07:30N 43°09' E 005°00'8 7.7
2015-Jan-29 06:30N 43°04' E 004°52'1111.9
2015-Jan-29 05:33N 42°56' E 004°41'1211.9
2015-Jan-29 04:33N 42°47' E 004°30'1312.6
2015-Jan-29 03:33N 42°39' E 004°18'1212.3
2015-Jan-29 02:33N 42°30' E 004°06'1312.7
2015-Jan-29 01:33N 42°21' E 003°54'1313.1
2015-Jan-29 00:33N 42°11' E 003°43'1312.8
2015-Jan-28 23:33N 42°01' E 003°32'1313.2
2015-Jan-28 22:33N 41°52' E 003°18'1413.5
2015-Jan-28 21:33N 41°43' E 003°05'1313.2
2015-Jan-28 20:33N 41°35' E 002°51'1312.7
2015-Jan-28 19:33N 41°27' E 002°38'1312.4
2015-Jan-28 18:31N 41°18' E 002°25'1212.6
2015-Jan-28 17:33N 41°10' E 002°13'1211.6
2015-Jan-28 16:33N 41°02' E 002°02'1111.2
2015-Jan-28 15:33N 40°55' E 001°51'1211.2
2015-Jan-28 14:31N 40°47' E 001°40'1010.8
2015-Jan-28 13:33N 40°40' E 001°30'9910.8
2015-Jan-28 04:21N 39°39' W 000°13'1 0.1
2015-Jan-27 15:33N 39°38' W 000°13'6111.3
2015-Jan-27 10:13N 39°20' E 001°03'811.5
2015-Jan-27 09:32N 39°18' E 001°12'1111.5
2015-Jan-27 08:33N 39°15' E 001°26'1111.0
2015-Jan-27 07:33N 39°12' E 001°40'1010.1
2015-Jan-27 06:33N 39°10' E 001°53'1010.5
2015-Jan-27 05:33N 39°07' E 002°06'1110.6
2015-Jan-27 04:33N 39°04' E 002°19'1110.9
2015-Jan-27 03:33N 39°01' E 002°32'1111.2
2015-Jan-27 02:33N 38°58' E 002°46'1110.9
2015-Jan-27 01:33N 38°54' E 002°59'1010.5
2015-Jan-27 00:33N 38°47' E 003°10'1010.1
2015-Jan-26 23:32N 38°41' E 003°20'  

Dump ship's entire track history